Time;durP1;ratioP1;P1;durP2;ratioP2;P2;SDS_P1;SDS_P2;PMS_P1;PMS_P2;Temp;Humidity;BMP_temperature;BMP_pressure;BME280_temperature;BME280_humidity;BME280_pressure;Samples;Min_cycle;Max_cycle;Signal;HPM_P1;HPM_P2
2021/11/01 00:00:14;;;;;;;4.57;1.33;;;17.30;99.90;;;;;;5092461;28;20016;-70
2021/11/01 00:02:41;;;;;;;4.30;1.30;;;17.20;99.90;;;;;;5092143;28;20020;-70
2021/11/01 00:05:08;;;;;;;3.03;0.93;;;17.20;99.90;;;;;;5092337;28;20048;-70
2021/11/01 00:07:34;;;;;;;9.00;1.40;;;17.20;99.90;;;;;;5092105;28;20051;-69
2021/11/01 00:10:00;;;;;;;4.57;1.15;;;17.20;99.90;;;;;;5092204;28;20471;-70
2021/11/01 00:12:30;;;;;;;2.38;0.98;;;17.20;99.90;;;;;;5091883;28;20024;-70
2021/11/01 00:14:57;;;;;;;5.03;1.23;;;17.20;99.90;;;;;;5092070;28;20016;-70
2021/11/01 00:17:25;;;;;;;4.28;1.10;;;17.20;99.90;;;;;;5091985;28;20020;-70
2021/11/01 00:19:51;;;;;;;4.00;1.13;;;17.20;99.90;;;;;;5092232;28;20031;-70
2021/11/01 00:22:17;;;;;;;3.35;1.25;;;17.20;99.90;;;;;;5091904;28;20020;-70
2021/11/01 00:24:42;;;;;;;3.35;1.05;;;17.20;99.90;;;;;;5092337;28;20028;-70
2021/11/01 00:27:08;;;;;;;3.42;0.80;;;17.10;99.90;;;;;;5091775;28;20028;-70
2021/11/01 00:29:34;;;;;;;4.35;1.00;;;17.10;99.90;;;;;;5091758;28;20068;-69
2021/11/01 00:32:00;;;;;;;2.75;1.08;;;17.10;99.90;;;;;;5091853;28;20472;-69
2021/11/01 00:34:25;;;;;;;2.90;1.05;;;17.10;99.90;;;;;;5090541;28;20091;-70
2021/11/01 00:36:53;;;;;;;2.78;0.93;;;17.10;99.90;;;;;;5091803;28;20510;-69
2021/11/01 00:39:19;;;;;;;3.58;1.20;;;17.10;99.90;;;;;;5090450;28;20031;-70
2021/11/01 00:41:45;;;;;;;3.67;0.95;;;17.10;99.90;;;;;;5091863;28;20012;-70
2021/11/01 00:44:10;;;;;;;3.38;1.00;;;17.10;99.90;;;;;;5091928;28;20035;-69
2021/11/01 00:46:36;;;;;;;3.42;1.10;;;17.10;99.90;;;;;;5091528;28;20115;-70
2021/11/01 00:49:03;;;;;;;3.38;0.85;;;17.10;99.90;;;;;;5091584;28;20032;-70
2021/11/01 00:51:28;;;;;;;3.83;1.02;;;17.10;99.90;;;;;;5091583;28;20028;-71
2021/11/01 00:53:54;;;;;;;4.03;1.02;;;17.00;99.90;;;;;;5091409;28;20035;-70
2021/11/01 00:56:20;;;;;;;3.55;0.90;;;17.00;99.90;;;;;;5091258;28;20024;-70
2021/11/01 00:58:46;;;;;;;4.00;1.30;;;17.00;99.90;;;;;;5091500;28;20039;-70
2021/11/01 01:01:15;;;;;;;4.15;1.02;;;17.00;99.90;;;;;;5091719;28;20028;-70
2021/11/01 01:03:43;;;;;;;5.47;1.38;;;17.00;99.90;;;;;;5091832;28;20024;-70
2021/11/01 01:06:09;;;;;;;4.15;0.90;;;17.00;99.90;;;;;;5091370;28;20464;-70
2021/11/01 01:08:34;;;;;;;3.80;1.20;;;17.00;99.90;;;;;;5091172;28;20077;-70
2021/11/01 01:11:00;;;;;;;3.50;0.93;;;17.00;99.90;;;;;;5090092;28;20024;-70
2021/11/01 01:13:29;;;;;;;2.75;1.17;;;17.00;99.90;;;;;;5073030;28;20020;-70
2021/11/01 01:16:03;;;;;;;3.00;0.80;;;17.00;99.90;;;;;;5091400;28;20016;-71
2021/11/01 01:18:32;;;;;;;;;;;17.00;99.90;;;;;;5091778;28;20024;-70
2021/11/01 01:21:00;;;;;;;2.75;0.82;;;17.00;99.90;;;;;;5091227;28;20361;-70
2021/11/01 01:23:26;;;;;;;4.18;1.25;;;17.00;99.90;;;;;;5090976;28;20020;-70
2021/11/01 01:25:57;;;;;;;6.38;1.25;;;17.00;99.90;;;;;;5091257;28;20036;-69
2021/11/01 01:28:23;;;;;;;4.78;0.98;;;17.00;99.90;;;;;;5090984;28;20020;-70
2021/11/01 01:30:50;;;;;;;5.32;1.10;;;17.00;99.90;;;;;;5091182;28;20388;-70
2021/11/01 01:33:16;;;;;;;5.68;1.27;;;17.00;99.90;;;;;;5091215;28;20056;-70
2021/11/01 01:35:42;;;;;;;4.25;1.10;;;17.00;99.90;;;;;;5091524;28;20033;-70
2021/11/01 01:38:10;;;;;;;5.57;1.10;;;17.00;99.90;;;;;;5089780;28;20025;-70
2021/11/01 01:40:36;;;;;;;4.38;1.20;;;17.00;99.90;;;;;;5089698;28;20028;-69
2021/11/01 01:43:04;;;;;;;3.13;1.00;;;17.00;99.90;;;;;;5091056;28;20034;-70
2021/11/01 01:45:31;;;;;;;3.60;1.00;;;17.00;99.90;;;;;;5090950;28;20032;-70
2021/11/01 01:47:57;;;;;;;3.53;0.90;;;17.00;99.90;;;;;;5090839;28;20035;-70
2021/11/01 01:50:23;;;;;;;3.97;1.20;;;17.00;99.90;;;;;;5090694;28;20028;-70
2021/11/01 01:52:49;;;;;;;3.78;1.05;;;17.00;99.90;;;;;;5090985;28;20372;-71
2021/11/01 01:55:17;;;;;;;2.75;0.90;;;17.00;99.90;;;;;;5091121;28;20020;-71
2021/11/01 01:57:43;;;;;;;2.55;0.80;;;16.90;99.90;;;;;;5091189;28;20020;-70
2021/11/01 02:02:47;;;;;;;3.50;0.80;;;17.00;99.90;;;;;;5091351;28;20032;-70
2021/11/01 02:05:15;;;;;;;2.95;1.00;;;17.00;99.90;;;;;;5091155;28;20065;-71
2021/11/01 02:07:51;;;;;;;3.30;0.93;;;17.00;99.90;;;;;;5094852;28;20099;-71
2021/11/01 02:10:22;;;;;;;3.58;1.40;;;17.00;99.90;;;;;;5094463;28;20036;-70
2021/11/01 02:12:58;;;;;;;3.63;0.85;;;17.00;99.90;;;;;;5094545;28;20372;-71
2021/11/01 02:15:39;;;;;;;3.80;1.33;;;17.00;99.90;;;;;;5094325;28;20024;-70
2021/11/01 02:18:07;;;;;;;4.30;1.05;;;17.00;99.90;;;;;;5094473;28;20425;-70
2021/11/01 02:20:35;;;;;;;3.95;0.90;;;17.00;99.90;;;;;;5094203;28;20020;-71
2021/11/01 02:23:26;;;;;;;4.68;1.25;;;17.00;99.90;;;;;;5094305;28;20024;-71
2021/11/01 02:25:55;;;;;;;3.22;1.00;;;17.00;99.90;;;;;;5094226;28;20029;-70
2021/11/01 02:28:24;;;;;;;2.80;0.90;;;17.00;99.90;;;;;;5093786;28;20140;-70
2021/11/01 02:30:51;;;;;;;5.70;1.08;;;17.00;99.90;;;;;;5094251;28;20581;-70
2021/11/01 02:33:18;;;;;;;5.45;1.35;;;17.00;99.90;;;;;;5093980;28;20024;-70
2021/11/01 02:35:45;;;;;;;5.32;0.90;;;17.00;99.90;;;;;;5094306;28;20543;-71
2021/11/01 02:38:14;;;;;;;3.55;0.93;;;17.00;99.90;;;;;;5094146;28;20021;-70
2021/11/01 02:40:40;;;;;;;5.28;0.93;;;17.00;99.90;;;;;;5093631;28;20396;-71
2021/11/01 02:43:06;;;;;;;3.88;0.98;;;17.00;99.90;;;;;;5093941;28;20020;-71
2021/11/01 02:45:34;;;;;;;3.83;0.90;;;17.00;99.90;;;;;;5093564;28;20438;-70
2021/11/01 02:48:00;;;;;;;4.20;1.02;;;17.00;99.90;;;;;;5093787;28;20023;-70
2021/11/01 02:50:26;;;;;;;6.40;1.30;;;17.10;99.90;;;;;;5092206;28;20115;-71
2021/11/01 02:52:53;;;;;;;5.35;1.17;;;17.10;99.90;;;;;;5093830;28;20103;-70
2021/11/01 02:55:20;;;;;;;5.18;1.33;;;17.10;99.90;;;;;;5093477;28;20028;-70
2021/11/01 02:57:47;;;;;;;3.92;0.80;;;17.00;99.90;;;;;;5093593;28;20032;-71
2021/11/01 03:00:15;;;;;;;2.85;0.82;;;17.10;99.90;;;;;;5094033;28;20056;-70
2021/11/01 03:02:42;;;;;;;7.15;1.40;;;17.10;99.90;;;;;;5093903;28;20023;-70
2021/11/01 03:05:14;;;;;;;5.18;1.02;;;17.10;99.90;;;;;;5093500;28;20077;-71
2021/11/01 03:07:41;;;;;;;4.35;0.90;;;17.10;99.90;;;;;;5093203;28;20054;-70
2021/11/01 03:10:09;;;;;;;3.08;0.80;;;17.10;99.90;;;;;;5093374;28;20036;-71
2021/11/01 03:12:40;;;;;;;6.15;1.63;;;17.10;99.90;;;;;;5091882;28;20023;-70
2021/11/01 03:15:08;;;;;;;4.35;1.15;;;17.20;99.90;;;;;;5093495;28;20023;-71
2021/11/01 03:17:40;;;;;;;4.90;1.10;;;17.10;99.90;;;;;;5092855;28;20061;-70
2021/11/01 03:20:10;;;;;;;5.25;1.00;;;17.10;99.90;;;;;;5091823;28;20047;-70
2021/11/01 03:22:44;;;;;;;4.70;0.95;;;17.10;99.90;;;;;;5092874;28;20028;-70
2021/11/01 03:25:26;;;;;;;3.63;1.10;;;17.10;99.90;;;;;;5093212;28;20051;-70
2021/11/01 03:27:54;;;;;;;6.45;1.30;;;17.20;99.90;;;;;;5093018;28;20023;-70
2021/11/01 03:30:21;;;;;;;3.88;1.13;;;17.20;99.90;;;;;;5092746;28;20042;-70
2021/11/01 03:32:48;;;;;;;4.18;1.05;;;17.20;99.90;;;;;;5092929;28;20053;-70
2021/11/01 03:35:16;;;;;;;3.75;1.23;;;17.20;99.90;;;;;;5093088;28;20028;-70
2021/11/01 03:37:43;;;;;;;6.85;1.02;;;17.20;99.90;;;;;;5093279;28;20439;-70
2021/11/01 03:40:12;;;;;;;4.90;0.90;;;17.20;99.90;;;;;;5092835;28;20066;-69
2021/11/01 03:42:38;;;;;;;4.75;1.08;;;17.20;99.90;;;;;;5092449;28;20032;-70
2021/11/01 03:45:05;;;;;;;4.43;0.95;;;17.20;99.90;;;;;;5092604;28;20020;-69
2021/11/01 03:47:38;;;;;;;3.58;1.10;;;17.20;99.90;;;;;;5092535;28;20078;-70
2021/11/01 03:50:15;;;;;;;5.40;1.25;;;17.30;99.90;;;;;;5092824;28;20081;-70
2021/11/01 03:52:42;;;;;;;9.43;1.20;;;17.30;99.90;;;;;;5093109;28;20024;-70
2021/11/01 03:55:08;;;;;;;7.45;1.00;;;17.30;99.90;;;;;;5092745;28;20028;-71
2021/11/01 03:57:34;;;;;;;6.72;1.27;;;17.30;99.90;;;;;;5092099;28;20020;-71
2021/11/01 04:00:00;;;;;;;6.10;1.10;;;17.30;99.90;;;;;;5092547;28;20463;-71
2021/11/01 04:02:26;;;;;;;4.35;1.05;;;17.30;99.90;;;;;;5092020;28;20035;-71
2021/11/01 04:04:53;;;;;;;10.32;1.30;;;17.30;99.90;;;;;;5092188;28;20472;-71
2021/11/01 04:07:19;;;;;;;4.28;1.13;;;17.30;99.90;;;;;;5092152;28;20016;-71
2021/11/01 04:09:45;;;;;;;4.93;1.10;;;17.30;99.90;;;;;;5092504;28;20372;-71
2021/11/01 04:12:12;;;;;;;6.47;1.35;;;17.30;99.90;;;;;;5092527;28;20035;-70
2021/11/01 04:14:51;;;;;;;3.67;0.98;;;17.30;99.90;;;;;;5091964;28;20039;-71
2021/11/01 04:17:24;;;;;;;5.88;1.25;;;17.40;99.90;;;;;;5091794;28;20535;-71
2021/11/01 04:22:23;;;;;;;8.65;0.95;;;17.30;99.90;;;;;;5092094;28;19908;-71
2021/11/01 04:24:49;;;;;;;4.32;1.27;;;17.30;99.90;;;;;;5090637;28;20024;-71
2021/11/01 04:27:15;;;;;;;5.15;1.10;;;17.30;99.90;;;;;;5092254;28;20513;-71
2021/11/01 04:29:41;;;;;;;3.88;1.10;;;17.30;99.90;;;;;;5091780;28;20050;-70
2021/11/01 04:32:56;;;;;;;2.90;0.88;;;17.40;99.90;;;;;;5092129;28;20447;-71
2021/11/01 04:34:59;;;;;;;3.70;0.80;;;17.40;99.90;;;;;;5087731;28;20035;-71
2021/11/01 04:37:27;;;;;;;4.15;1.20;;;17.40;99.90;;;;;;5091861;28;20024;-70
2021/11/01 04:40:04;;;;;;;4.80;1.15;;;17.40;99.90;;;;;;5090414;28;20028;-70
2021/11/01 04:53:22;;;;;;;;;;;17.40;99.90;;;;;;5090508;28;20540;-71
2021/11/01 04:55:48;;;;;;;3.72;0.68;;;17.40;99.90;;;;;;5091672;28;19911;-70
2021/11/01 04:58:14;;;;;;;4.65;0.90;;;17.40;99.90;;;;;;5091579;28;20399;-70
2021/11/01 05:00:40;;;;;;;3.03;0.90;;;17.40;99.90;;;;;;5091289;28;20032;-71
2021/11/01 05:05:40;;;;;;;5.22;1.00;;;17.40;99.90;;;;;;5091328;28;20020;-70
2021/11/01 05:08:06;;;;;;;5.03;0.98;;;17.50;99.90;;;;;;5090063;28;20438;-71
2021/11/01 05:10:40;;;;;;;5.25;1.10;;;17.40;99.90;;;;;;5091203;28;20019;-70
2021/11/01 05:13:11;;;;;;;4.63;1.15;;;17.50;99.90;;;;;;5091493;28;20020;-71
2021/11/01 05:16:02;;;;;;;3.72;0.82;;;17.50;99.90;;;;;;5090035;28;20039;-70
2021/11/01 05:18:31;;;;;;;4.43;0.80;;;17.50;99.90;;;;;;5091130;28;20028;-70
2021/11/01 05:23:36;;;;;;;7.05;1.38;;;17.50;99.90;;;;;;5091385;28;20511;-70
2021/11/01 05:28:49;;;;;;;5.28;0.98;;;17.50;99.90;;;;;;5091207;28;20115;-71
2021/11/01 05:31:23;;;;;;;6.43;0.80;;;17.50;99.90;;;;;;5091573;28;20380;-71
2021/11/01 05:36:18;;;;;;;6.07;1.20;;;17.50;99.90;;;;;;5091021;28;20016;-70
2021/11/01 05:38:44;;;;;;;5.10;1.30;;;17.50;99.90;;;;;;5091669;28;20056;-70
2021/11/01 05:41:10;;;;;;;5.55;1.10;;;17.50;99.90;;;;;;5092721;28;20048;-70
2021/11/01 05:43:36;;;;;;;5.60;1.35;;;17.50;99.90;;;;;;5094896;28;20438;-70
2021/11/01 05:46:02;;;;;;;4.38;1.20;;;17.50;99.90;;;;;;5095069;28;20479;-71
2021/11/01 05:48:28;;;;;;;2.80;0.63;;;17.50;99.90;;;;;;5094709;28;20039;-71
2021/11/01 05:50:54;;;;;;;5.03;1.05;;;17.50;99.90;;;;;;5094976;28;20032;-71
2021/11/01 05:53:21;;;;;;;5.97;0.90;;;17.50;99.90;;;;;;5094628;28;20103;-71
2021/11/01 05:56:02;;;;;;;3.67;1.10;;;17.60;99.90;;;;;;5094875;28;20031;-70
2021/11/01 05:58:52;;;;;;;5.32;1.38;;;17.50;99.90;;;;;;5094388;28;20115;-70
2021/11/01 06:01:53;;;;;;;3.80;0.90;;;17.50;99.90;;;;;;5094685;28;20021;-70
2021/11/01 06:07:19;;;;;;;5.22;0.90;;;17.60;99.90;;;;;;5094775;28;20034;-71
2021/11/01 06:15:01;;;;;;;2.55;0.80;;;17.70;99.90;;;;;;5094579;28;20050;-70
2021/11/01 06:17:27;;;;;;;3.88;1.10;;;17.70;99.90;;;;;;5094363;28;20020;-70
2021/11/01 06:19:52;;;;;;;5.85;1.40;;;17.70;99.90;;;;;;5094701;28;20072;-71
2021/11/01 06:22:18;;;;;;;3.70;0.70;;;17.70;99.90;;;;;;5094238;28;20384;-70
2021/11/01 06:25:28;;;;;;;4.20;0.93;;;17.70;99.90;;;;;;5093504;28;20036;-70
2021/11/01 06:27:34;;;;;;;4.93;1.45;;;17.70;99.90;;;;;;5090961;28;20036;-71
2021/11/01 06:30:11;;;;;;;5.20;1.10;;;17.80;99.90;;;;;;5094449;28;20176;-70
2021/11/01 06:49:44;;;;;;;3.17;0.88;;;17.80;99.90;;;;;;5074585;28;20115;-71
2021/11/01 06:57:14;;;;;;;5.85;0.90;;;17.80;99.90;;;;;;5073653;28;20020;-71
2021/11/01 07:16:21;;;;;;;6.82;1.02;;;17.80;99.90;;;;;;5073176;28;20031;-71
2021/11/01 07:18:54;;;;;;;5.80;1.42;;;17.80;99.90;;;;;;5073185;28;20031;-72
2021/11/01 08:21:39;;;;;;;;;;;17.80;99.90;;;;;;5079070;28;20036;-73
2021/11/01 08:27:10;;;;;;;4.63;1.20;;;17.80;99.90;;;;;;5088898;28;20024;-72
2021/11/01 09:12:43;;;;;;;;;;;18.00;99.90;;;;;;5091263;28;20081;-71
2021/11/01 09:20:06;;;;;;;4.60;0.90;;;18.10;99.90;;;;;;5095284;28;20043;-74
2021/11/01 09:36:15;;;;;;;9.30;1.90;;;18.30;99.90;;;;;;5094829;28;20033;-73
2021/11/01 09:41:20;;;;;;;18.17;2.03;;;18.30;99.90;;;;;;5079770;28;20069;-72
2021/11/01 09:43:51;;;;;;;16.35;1.42;;;18.40;99.90;;;;;;5093116;28;20493;-76
2021/11/01 09:46:17;;;;;;;12.43;1.55;;;18.40;99.90;;;;;;5093767;28;20395;-74
2021/11/01 09:48:43;;;;;;;7.28;1.42;;;18.30;99.90;;;;;;5093778;28;20032;-73
2021/11/01 09:51:09;;;;;;;19.35;1.48;;;18.40;99.90;;;;;;5091751;28;20028;-80
2021/11/01 09:53:45;;;;;;;7.60;1.50;;;18.40;99.90;;;;;;5093722;28;20020;-73
2021/11/01 10:01:28;;;;;;;8.35;0.90;;;18.40;99.90;;;;;;5093946;28;20028;-72
2021/11/01 10:03:54;;;;;;;6.03;0.90;;;18.50;99.90;;;;;;5082644;28;20028;-73
2021/11/01 10:06:23;;;;;;;4.35;0.90;;;18.50;99.90;;;;;;5087197;28;20020;-73
2021/11/01 10:09:00;;;;;;;3.65;0.95;;;18.50;99.90;;;;;;5077429;28;20040;-74
2021/11/01 10:11:29;;;;;;;6.57;1.10;;;18.50;99.90;;;;;;5087857;28;20059;-75
2021/11/01 10:13:59;;;;;;;4.72;1.00;;;18.50;99.90;;;;;;5084012;28;20027;-73
2021/11/01 10:19:41;;;;;;;5.80;1.00;;;18.50;99.90;;;;;;5078694;28;20039;-73
2021/11/01 10:22:24;;;;;;;4.22;1.05;;;18.60;99.90;;;;;;5094051;28;20051;-72
2021/11/01 10:24:52;;;;;;;3.15;0.65;;;18.60;99.90;;;;;;5077198;28;20055;-73
2021/11/01 10:27:33;;;;;;;2.38;0.90;;;18.60;99.90;;;;;;5087962;28;20112;-74
2021/11/01 10:30:06;;;;;;;4.00;0.85;;;18.60;99.90;;;;;;5084179;28;20036;-74
2021/11/01 10:32:44;;;;;;;4.38;1.08;;;18.70;99.90;;;;;;5078328;28;20553;-73
2021/11/01 10:35:23;;;;;;;3.60;0.90;;;18.70;99.90;;;;;;5077284;28;20032;-74
2021/11/01 10:38:42;;;;;;;3.05;0.98;;;18.70;99.90;;;;;;5093937;28;20021;-72
2021/11/01 10:41:08;;;;;;;3.38;0.88;;;18.70;99.90;;;;;;5076282;28;20028;-73
2021/11/01 11:11:32;;;;;;;2.38;0.60;;;18.90;99.90;;;;;;5086574;28;20109;-72
2021/11/01 11:16:58;;;;;;;4.03;1.17;;;19.00;99.90;;;;;;5089646;28;20055;-74
2021/11/01 11:43:49;;;;;;;2.50;0.47;;;19.00;99.90;;;;;;5089234;28;20374;-75
2021/11/01 11:49:18;;;;;;;3.15;0.77;;;19.10;99.90;;;;;;5090327;28;20039;-72
2021/11/01 11:52:04;;;;;;;1.83;0.83;;;19.10;99.90;;;;;;5091221;28;20028;-73
2021/11/01 11:54:44;;;;;;;2.92;0.80;;;19.10;99.90;;;;;;5076908;28;20480;-74
2021/11/01 11:57:34;;;;;;;3.72;1.13;;;19.10;99.90;;;;;;5075858;28;20047;-71
2021/11/01 12:00:04;;;;;;;4.75;1.00;;;19.20;99.90;;;;;;5090854;28;20060;-72
2021/11/01 12:02:42;;;;;;;6.38;1.08;;;19.20;99.90;;;;;;5089246;28;20115;-73
2021/11/01 12:05:15;;;;;;;4.22;0.95;;;19.20;99.90;;;;;;5088572;28;20134;-72
2021/11/01 12:07:58;;;;;;;3.85;1.05;;;19.20;99.90;;;;;;5090754;28;20054;-75
2021/11/01 12:18:47;;;;;;;3.13;1.10;;;19.20;99.90;;;;;;5089466;28;20487;-72
2021/11/01 12:21:13;;;;;;;3.63;1.15;;;19.20;99.90;;;;;;5089293;28;20027;-73
2021/11/01 12:23:42;;;;;;;7.93;1.30;;;19.20;99.90;;;;;;5090087;28;20032;-75
2021/11/01 12:26:10;;;;;;;4.32;1.30;;;19.20;99.90;;;;;;5085319;28;20039;-75
2021/11/01 12:28:40;;;;;;;11.35;1.98;;;19.20;99.90;;;;;;5090104;28;20031;-74
2021/11/01 12:31:09;;;;;;;7.90;1.50;;;19.20;99.90;;;;;;5089979;28;20552;-73
2021/11/01 12:33:36;;;;;;;9.43;1.65;;;19.20;99.90;;;;;;5090011;28;20017;-76
2021/11/01 12:36:06;;;;;;;7.57;1.63;;;19.20;99.90;;;;;;5089660;28;20122;-77
2021/11/01 12:38:39;;;;;;;5.75;1.45;;;19.20;99.90;;;;;;5091210;28;20027;-76
2021/11/01 12:45:18;;;;;;;5.07;1.50;;;19.20;99.90;;;;;;5062656;28;20032;-73
2021/11/01 12:58:24;;;;;;;5.00;1.13;;;19.10;99.90;;;;;;5089370;28;20394;-72
2021/11/01 13:00:51;;;;;;;5.57;1.25;;;19.10;99.90;;;;;;5089760;28;20036;-71
2021/11/01 13:03:21;;;;;;;4.43;1.20;;;19.10;99.90;;;;;;5089822;28;20070;-71
2021/11/01 13:05:59;;;;;;;3.92;1.08;;;19.10;99.90;;;;;;5090219;28;20046;-71
2021/11/01 13:08:29;;;;;;;5.40;1.15;;;19.10;99.90;;;;;;5088385;28;20034;-71
2021/11/01 13:11:20;;;;;;;3.55;1.40;;;19.10;99.90;;;;;;5089538;28;20394;-74
2021/11/01 13:19:20;;;;;;;3.35;0.90;;;19.00;99.90;;;;;;5089803;28;20035;-69
2021/11/01 13:21:59;;;;;;;4.90;0.90;;;19.00;99.90;;;;;;5087289;28;20107;-70
2021/11/01 13:24:43;;;;;;;1.98;0.90;;;19.00;99.90;;;;;;5090775;28;20023;-75
2021/11/01 13:35:47;;;;;;;4.45;1.08;;;18.90;99.90;;;;;;5088413;28;20035;-76
2021/11/01 13:38:25;;;;;;;2.40;0.80;;;18.90;99.90;;;;;;5091222;28;20022;-77
2021/11/01 13:40:51;;;;;;;4.40;1.00;;;18.90;99.90;;;;;;5089659;28;20507;-80
2021/11/01 13:43:28;;;;;;;2.83;0.88;;;18.90;99.90;;;;;;5075128;28;20099;-77
2021/11/01 13:45:57;;;;;;;3.13;1.00;;;18.90;99.90;;;;;;5080798;28;20024;-79
2021/11/01 13:48:31;;;;;;;4.72;0.90;;;18.90;99.90;;;;;;5084534;28;20028;-80
2021/11/01 13:51:10;;;;;;;4.82;0.95;;;18.90;99.90;;;;;;5073907;28;20028;-80
2021/11/01 13:53:52;;;;;;;2.70;0.85;;;18.90;99.90;;;;;;5083119;28;20021;-71
2021/11/01 13:59:00;;;;;;;2.20;0.82;;;18.90;99.90;;;;;;5073892;28;20045;-78
2021/11/01 14:12:40;;;;;;;3.05;0.60;;;18.80;99.90;;;;;;5088260;28;19915;-79
2021/11/01 14:58:34;;;;;;;2.42;0.60;;;18.60;99.90;;;;;;5070117;28;20064;-76
2021/11/01 15:14:38;;;;;;;2.10;0.75;;;18.50;99.90;;;;;;5083733;28;20039;-76
2021/11/01 15:17:04;;;;;;;2.50;0.68;;;18.50;99.90;;;;;;5091660;28;20113;-78
2021/11/01 15:27:44;;;;;;;1.65;0.60;;;18.50;99.90;;;;;;5090619;28;20371;-73
2021/11/01 16:18:12;;;;;;;1.52;0.50;;;18.30;99.90;;;;;;5079872;28;20060;-73
2021/11/01 16:20:39;;;;;;;1.48;0.50;;;18.30;99.90;;;;;;5087427;28;20024;-71
2021/11/01 16:25:32;;;;;;;1.35;0.47;;;18.20;99.90;;;;;;5090772;28;20024;-74
2021/11/01 16:27:57;;;;;;;1.35;0.35;;;18.20;99.90;;;;;;5084047;28;20041;-71
2021/11/01 16:30:26;;;;;;;2.53;0.52;;;18.20;99.90;;;;;;5091213;28;20044;-71
2021/11/01 16:32:59;;;;;;;1.02;0.50;;;18.20;99.90;;;;;;5075621;28;20012;-75
2021/11/01 16:35:31;;;;;;;1.33;0.50;;;18.20;99.90;;;;;;5091009;28;20036;-71
2021/11/01 16:38:19;;;;;;;1.40;0.50;;;18.20;99.90;;;;;;5091429;28;20024;-72
2021/11/01 16:40:45;;;;;;;1.05;0.30;;;18.10;99.90;;;;;;5075125;28;20070;-71
2021/11/01 16:43:16;;;;;;;1.13;0.40;;;18.20;99.90;;;;;;5091226;28;20031;-72
2021/11/01 16:45:44;;;;;;;0.65;0.35;;;18.10;99.90;;;;;;5091634;28;20035;-72
2021/11/01 16:48:09;;;;;;;1.25;0.50;;;18.10;99.90;;;;;;5077786;28;20037;-74
2021/11/01 16:50:36;;;;;;;2.25;0.60;;;18.10;99.90;;;;;;5085857;28;20511;-72
2021/11/01 16:53:02;;;;;;;1.65;0.50;;;18.10;99.90;;;;;;5089267;28;20069;-71
2021/11/01 16:55:34;;;;;;;0.80;0.40;;;18.10;99.90;;;;;;5090698;28;20024;-71
2021/11/01 16:58:11;;;;;;;1.98;0.70;;;18.10;99.90;;;;;;5080153;28;20028;-72
2021/11/01 17:03:13;;;;;;;2.03;0.52;;;18.10;99.90;;;;;;5075523;28;20028;-75
2021/11/01 17:05:58;;;;;;;1.50;0.47;;;18.00;99.90;;;;;;5090732;28;20012;-73
2021/11/01 17:22:26;;;;;;;1.02;0.40;;;18.00;99.90;;;;;;5090430;28;20510;-72
2021/11/01 17:24:59;;;;;;;2.97;0.80;;;17.90;99.90;;;;;;5090289;28;20043;-72
2021/11/01 17:28:13;;;;;;;0.90;0.43;;;17.90;99.90;;;;;;5090487;28;20023;-71
2021/11/01 17:36:32;;;;;;;3.28;0.50;;;17.90;99.90;;;;;;5091876;28;20043;-71
2021/11/01 18:45:50;;;;;;;3.40;0.68;;;17.60;99.90;;;;;;5092204;28;20506;-71
2021/11/01 18:51:07;;;;;;;1.25;0.60;;;17.60;99.90;;;;;;5080950;28;20529;-71
2021/11/01 18:53:43;;;;;;;2.40;0.50;;;17.60;99.90;;;;;;5092916;28;20032;-74
2021/11/01 18:56:12;;;;;;;2.25;0.60;;;17.60;99.90;;;;;;5093662;28;20027;-73
2021/11/01 18:58:40;;;;;;;5.07;0.90;;;17.60;99.90;;;;;;5076872;28;20377;-76
2021/11/01 19:01:10;;;;;;;2.42;0.70;;;17.60;99.90;;;;;;5092983;28;20036;-74
2021/11/01 19:03:43;;;;;;;2.05;0.75;;;17.60;99.90;;;;;;5090494;28;20024;-78
2021/11/01 20:04:17;;;;;;;1.92;0.82;;;17.60;99.90;;;;;;5092619;28;20510;-84
2021/11/01 20:07:10;;;;;;;1.88;0.60;;;17.60;99.90;;;;;;5092917;28;20130;-81
2021/11/01 21:27:00;;;;;;;21.73;6.20;;;17.60;99.90;;;;;;5091372;28;20039;-72
2021/11/01 21:29:27;;;;;;;17.05;5.05;;;17.60;99.90;;;;;;5090841;28;20036;-74
2021/11/01 21:31:53;;;;;;;21.10;5.65;;;17.60;99.90;;;;;;5091041;28;20024;-74
2021/11/01 21:34:28;;;;;;;18.95;6.30;;;17.60;99.90;;;;;;5090745;28;20024;-76
2021/11/01 21:36:55;;;;;;;18.52;6.38;;;17.60;99.90;;;;;;5090708;28;20024;-75
2021/11/01 21:39:20;;;;;;;17.67;5.97;;;17.60;99.90;;;;;;5089580;28;20032;-72
2021/11/01 21:41:46;;;;;;;19.20;5.82;;;17.60;99.90;;;;;;5091038;28;20024;-74
2021/11/01 21:44:12;;;;;;;16.73;5.55;;;17.60;99.90;;;;;;5091178;28;20046;-77
2021/11/01 21:46:37;;;;;;;17.58;5.78;;;17.60;99.90;;;;;;5090827;28;20031;-74
2021/11/01 21:49:04;;;;;;;14.07;4.90;;;17.70;99.90;;;;;;5091167;28;20029;-79
2021/11/01 21:51:37;;;;;;;20.25;5.88;;;17.70;99.90;;;;;;5090697;28;20085;-78
2021/11/01 21:54:14;;;;;;;14.93;4.93;;;17.60;99.90;;;;;;5090964;28;20035;-73
2021/11/01 21:56:43;;;;;;;21.88;5.80;;;17.60;99.90;;;;;;5090259;28;20047;-74
2021/11/01 21:59:50;;;;;;;14.70;5.22;;;17.60;99.90;;;;;;5090903;28;20054;-72
2021/11/01 22:10:22;;;;;;;;;;;17.60;99.90;;;;;;5091328;28;20043;-76
2021/11/01 22:19:08;;;;;;;16.40;5.35;;;17.60;99.90;;;;;;5091099;28;20035;-70
2021/11/01 22:21:14;;;;;;;13.32;4.80;;;17.60;99.90;;;;;;5085134;28;20036;-71
2021/11/01 22:34:32;;;;;;;11.30;4.20;;;17.60;99.90;;;;;;5094113;28;20055;-70
2021/11/01 22:45:10;;;;;;;14.98;4.72;;;17.60;99.90;;;;;;5093944;28;20020;-80
2021/11/01 22:58:23;;;;;;;11.13;4.22;;;17.50;99.90;;;;;;5093210;28;20036;-77
2021/11/01 23:01:10;;;;;;;15.35;4.13;;;17.50;99.90;;;;;;5093690;28;20016;-77
2021/11/01 23:03:46;;;;;;;13.00;3.97;;;17.50;99.90;;;;;;5093467;28;20020;-80
2021/11/01 23:33:21;;;;;;;4.72;2.45;;;17.30;99.90;;;;;;5092817;28;19911;-80
2021/11/01 23:35:47;;;;;;;8.32;2.63;;;17.30;99.90;;;;;;5093069;28;20028;-73
2021/11/01 23:38:13;;;;;;;7.85;3.08;;;17.30;99.90;;;;;;5093365;28;20060;-80
2021/11/01 23:40:39;;;;;;;6.15;2.60;;;17.30;99.90;;;;;;5092952;28;20475;-79
2021/11/01 23:43:06;;;;;;;6.82;2.78;;;17.30;99.90;;;;;;5091747;28;20487;-75
2021/11/01 23:45:36;;;;;;;8.23;3.28;;;17.30;99.90;;;;;;5091290;28;20016;-80
2021/11/01 23:48:02;;;;;;;6.35;2.67;;;17.30;99.90;;;;;;5092761;28;20499;-77
2021/11/01 23:50:33;;;;;;;8.23;3.10;;;17.20;99.90;;;;;;5092525;28;20071;-71
2021/11/01 23:53:05;;;;;;;5.30;2.53;;;17.20;99.90;;;;;;5092756;28;20020;-76
2021/11/01 23:55:31;;;;;;;6.68;2.80;;;17.20;99.90;;;;;;5092436;28;20020;-77
2021/11/01 23:57:57;;;;;;;7.72;2.70;;;17.20;99.90;;;;;;5092445;28;20355;-79
